createdAt,value
2023-03-29T00:04:46.315Z,49.67
2023-03-29T00:09:52.060Z,45.33
2023-03-29T00:14:57.218Z,38.67
2023-03-29T00:20:02.496Z,42.67
2023-03-29T00:25:08.556Z,50.00
2023-03-29T00:30:14.970Z,50.67
2023-03-29T00:35:21.230Z,49.00
2023-03-29T00:40:26.992Z,48.33
2023-03-29T00:45:32.307Z,48.00
2023-03-29T00:50:45.731Z,50.00
2023-03-29T00:55:56.941Z,50.00
2023-03-29T01:01:20.714Z,47.67
2023-03-29T01:06:30.541Z,48.67
2023-03-29T01:11:51.789Z,49.75
2023-03-29T01:16:57.192Z,40.25
2023-03-29T01:28:07.704Z,48.25
2023-03-29T01:33:22.507Z,48.67
2023-03-29T01:38:36.521Z,46.75
2023-03-29T01:43:57.666Z,50.00
2023-03-29T01:49:14.890Z,50.33
2023-03-29T01:54:35.694Z,51.00
2023-03-29T01:59:45.012Z,50.00
2023-03-29T02:09:59.599Z,50.00
2023-03-29T02:15:05.943Z,50.00
2023-03-29T02:20:23.626Z,55.50
2023-03-29T02:25:29.155Z,50.67
2023-03-29T02:30:50.263Z,47.33
2023-03-29T02:36:11.618Z,50.00
2023-03-29T02:41:21.032Z,50.00
2023-03-29T02:46:28.375Z,50.00
2023-03-29T02:56:49.503Z,49.67
2023-03-29T03:01:55.650Z,49.75
2023-03-29T03:07:01.368Z,55.00
2023-03-29T03:12:06.953Z,49.67
2023-03-29T03:17:12.908Z,55.00
2023-03-29T03:22:19.984Z,50.67
2023-03-29T03:27:25.382Z,50.67
2023-03-29T03:32:31.115Z,52.75
2023-03-29T03:38:06.206Z,47.25
2023-03-29T03:43:11.794Z,47.67
2023-03-29T03:48:20.005Z,49.67
2023-03-29T03:53:45.450Z,48.67
2023-03-29T03:58:51.181Z,45.00
2023-03-29T04:03:57.401Z,50.00
2023-03-29T04:09:04.692Z,59.67
2023-03-29T04:14:17.085Z,50.75
2023-03-29T04:19:43.523Z,61.50
2023-03-29T04:24:49.294Z,57.25
2023-03-29T04:30:23.687Z,52.50
2023-03-29T04:35:58.335Z,55.75
2023-03-29T04:41:06.334Z,52.00
2023-03-29T04:46:27.703Z,52.00
2023-03-29T04:51:51.214Z,48.50
2023-03-29T04:56:59.455Z,49.25
2023-03-29T05:02:37.058Z,49.75
2023-03-29T05:07:42.887Z,49.00
2023-03-29T05:12:52.751Z,50.00
2023-03-29T05:18:00.543Z,45.33
2023-03-29T05:23:06.268Z,46.00
2023-03-29T05:28:30.713Z,51.50
2023-03-29T05:33:38.751Z,50.00
2023-03-29T05:38:48.545Z,50.00
2023-03-29T05:49:02.708Z,50.00
2023-03-29T05:59:45.303Z,46.50
2023-03-29T06:10:03.088Z,45.50
2023-03-29T06:15:09.852Z,46.25
2023-03-29T06:20:31.457Z,49.50
2023-03-29T06:25:42.884Z,50.00
2023-03-29T06:30:48.948Z,46.33
2023-03-29T06:35:54.655Z,47.33
2023-03-29T06:41:06.495Z,50.00
2023-03-29T06:46:29.554Z,49.67
2023-03-29T06:51:39.000Z,43.00
2023-03-29T06:56:44.456Z,43.50
2023-03-29T07:01:55.597Z,38.75
2023-03-29T07:07:24.501Z,37.75
2023-03-29T07:12:38.031Z,41.67
2023-03-29T07:17:43.650Z,43.00
2023-03-29T07:22:49.700Z,40.75
2023-03-29T07:27:55.888Z,37.00
2023-03-29T07:33:02.046Z,39.33
2023-03-29T07:38:15.935Z,38.50
2023-03-29T07:43:27.104Z,38.50
2023-03-29T07:48:33.940Z,42.00
2023-03-29T07:53:42.936Z,41.00
2023-03-29T07:59:21.339Z,47.25
2023-03-29T08:09:53.422Z,46.50
2023-03-29T08:15:08.201Z,43.50
2023-03-29T08:20:19.731Z,46.00
2023-03-29T08:25:28.988Z,47.00
2023-03-29T08:30:35.942Z,46.33
2023-03-29T08:40:54.730Z,43.50
2023-03-29T08:46:34.568Z,43.00
2023-03-29T08:52:07.090Z,46.33
2023-03-29T08:57:29.339Z,42.25
2023-03-29T09:02:43.658Z,47.00
2023-03-29T09:07:52.322Z,47.25
2023-03-29T09:13:23.140Z,48.25
2023-03-29T09:19:01.191Z,46.75
2023-03-29T09:24:09.800Z,43.67
2023-03-29T09:29:50.615Z,42.25
2023-03-29T09:35:39.909Z,43.00
2023-03-29T09:40:57.901Z,43.75
2023-03-29T09:46:08.812Z,46.50
2023-03-29T09:51:16.838Z,47.67
2023-03-29T09:56:23.234Z,48.75
2023-03-29T10:01:42.743Z,46.75
2023-03-29T10:06:54.052Z,45.00
2023-03-29T10:12:03.796Z,46.00
2023-03-29T10:17:30.888Z,47.75
2023-03-29T10:22:39.140Z,47.67
2023-03-29T10:27:47.590Z,47.33
2023-03-29T10:33:01.287Z,44.33
2023-03-29T10:38:13.404Z,48.00
2023-03-29T10:43:39.699Z,45.00
2023-03-29T10:48:53.000Z,48.25
2023-03-29T10:54:00.676Z,40.00
2023-03-29T10:59:19.079Z,45.75
2023-03-29T11:04:40.417Z,46.25
2023-03-29T11:09:58.480Z,47.75
2023-03-29T11:15:14.099Z,48.25
2023-03-29T11:20:46.371Z,47.75
2023-03-29T11:26:02.027Z,47.75
2023-03-29T11:31:45.473Z,49.25
2023-03-29T11:37:02.257Z,48.00
2023-03-29T11:42:19.208Z,50.00
2023-03-29T11:47:30.527Z,48.25
2023-03-29T11:52:45.806Z,49.25
2023-03-29T12:03:17.028Z,44.75
2023-03-29T12:08:34.122Z,46.75
2023-03-29T12:13:51.754Z,50.00
2023-03-29T12:19:01.635Z,48.00
2023-03-29T12:24:08.314Z,50.00
2023-03-29T12:29:46.936Z,47.00
2023-03-29T12:34:59.499Z,48.75
2023-03-29T12:40:27.512Z,45.33
2023-03-29T12:45:56.796Z,46.00
2023-03-29T12:51:05.623Z,47.50
2023-03-29T12:56:18.332Z,45.75
2023-03-29T13:01:33.609Z,48.00
2023-03-29T13:06:53.686Z,46.67
2023-03-29T13:12:00.002Z,50.00
2023-03-29T13:17:18.314Z,48.25
2023-03-29T13:22:49.376Z,49.50
2023-03-29T13:28:16.352Z,43.00
2023-03-29T13:33:50.123Z,46.67
2023-03-29T13:38:58.159Z,46.50
2023-03-29T13:44:03.956Z,48.00
2023-03-29T13:49:18.865Z,49.75
2023-03-29T13:55:00.436Z,47.00
2023-03-29T14:00:13.210Z,47.00
2023-03-29T14:05:26.061Z,44.25
2023-03-29T14:10:42.632Z,44.25
2023-03-29T14:16:05.864Z,43.75
2023-03-29T14:21:15.931Z,45.25
2023-03-29T14:26:24.303Z,47.33
2023-03-29T14:31:42.409Z,44.67
2023-03-29T14:36:50.535Z,46.00
2023-03-29T14:41:59.569Z,48.25
2023-03-29T14:47:06.567Z,49.50
2023-03-29T14:52:14.912Z,48.67
2023-03-29T14:57:21.820Z,42.00
2023-03-29T15:02:36.324Z,45.25
2023-03-29T15:07:45.538Z,47.25
2023-03-29T15:12:54.925Z,47.25
2023-03-29T15:18:00.700Z,45.50
2023-03-29T15:23:18.202Z,44.00
2023-03-29T15:28:29.510Z,46.67
2023-03-29T15:33:41.939Z,45.25
2023-03-29T15:38:51.992Z,44.00
2023-03-29T15:43:59.743Z,43.00
2023-03-29T15:49:07.289Z,42.75
2023-03-29T15:54:12.885Z,48.50
2023-03-29T15:59:19.503Z,40.00
2023-03-29T16:04:25.631Z,43.75
2023-03-29T16:09:31.727Z,45.67
2023-03-29T16:14:38.038Z,47.00
2023-03-29T16:19:43.390Z,45.00
2023-03-29T16:24:48.674Z,44.00
2023-03-29T16:29:54.693Z,48.25
2023-03-29T16:35:00.140Z,42.00
2023-03-29T16:40:08.985Z,44.25
2023-03-29T16:45:17.714Z,47.00
2023-03-29T16:50:23.967Z,43.33
2023-03-29T16:55:29.924Z,46.25
2023-03-29T17:00:35.176Z,44.75
2023-03-29T17:05:44.255Z,44.50
2023-03-29T17:10:55.369Z,47.00
2023-03-29T17:16:00.974Z,43.67
2023-03-29T17:21:07.230Z,45.00
2023-03-29T17:26:16.203Z,45.00
2023-03-29T17:36:26.626Z,46.00
2023-03-29T17:41:32.238Z,46.50
2023-03-29T17:46:40.014Z,43.00
2023-03-29T17:51:45.437Z,49.75
2023-03-29T17:56:51.700Z,46.00
2023-03-29T18:01:57.040Z,48.50
2023-03-29T18:07:02.974Z,47.75
2023-03-29T18:12:10.116Z,47.75
2023-03-29T18:17:15.214Z,34.33
2023-03-29T18:22:22.255Z,46.67
2023-03-29T18:27:27.644Z,40.00
2023-03-29T18:32:33.504Z,45.00
2023-03-29T18:37:38.987Z,48.75
2023-03-29T18:42:44.097Z,44.00
2023-03-29T18:47:51.726Z,39.25
2023-03-29T18:52:57.102Z,38.25
2023-03-29T18:58:02.498Z,41.00
2023-03-29T19:03:08.132Z,46.50
2023-03-29T19:08:13.489Z,44.67
2023-03-29T19:13:19.046Z,43.67
2023-03-29T19:18:24.687Z,36.50
2023-03-29T19:23:30.312Z,46.00
2023-03-29T19:28:36.261Z,46.67
2023-03-29T19:38:47.896Z,44.75
2023-03-29T19:43:53.256Z,47.00
2023-03-29T19:49:01.146Z,48.33
2023-03-29T19:54:08.278Z,44.50
2023-03-29T19:59:16.245Z,45.25
2023-03-29T20:04:24.208Z,44.33
2023-03-29T20:09:29.434Z,42.75
2023-03-29T20:14:35.748Z,43.25
2023-03-29T20:19:45.344Z,44.50
2023-03-29T20:24:50.767Z,43.00
2023-03-29T20:29:56.133Z,43.67
2023-03-29T20:35:01.564Z,41.00
2023-03-29T20:40:07.901Z,43.00
2023-03-29T20:45:19.759Z,47.50
2023-03-29T20:50:27.571Z,36.67
2023-03-29T20:55:34.463Z,45.50
2023-03-29T21:00:39.952Z,44.00
2023-03-29T21:05:46.151Z,43.00
2023-03-29T21:10:53.096Z,40.75
2023-03-29T21:15:58.657Z,43.00
2023-03-29T21:21:04.030Z,45.50
2023-03-29T21:26:10.022Z,36.25
2023-03-29T21:31:15.365Z,38.25
2023-03-29T21:36:21.245Z,37.25
2023-03-29T21:41:26.644Z,38.33
2023-03-29T21:46:32.226Z,39.00
2023-03-29T21:51:37.738Z,45.50
2023-03-29T21:56:43.246Z,36.25
2023-03-29T22:06:54.330Z,40.00
2023-03-29T22:12:01.099Z,46.67
2023-03-29T22:17:08.154Z,47.33
2023-03-29T22:22:16.038Z,37.00
2023-03-29T22:27:21.341Z,39.00
2023-03-29T22:32:26.867Z,40.25
2023-03-29T22:37:32.477Z,40.50
2023-03-29T22:42:37.785Z,37.00
2023-03-29T22:47:43.026Z,37.67
2023-03-29T22:52:48.014Z,40.33
2023-03-29T22:57:53.393Z,41.67
2023-03-29T23:02:59.435Z,36.50
2023-03-29T23:08:04.831Z,38.75
2023-03-29T23:13:10.202Z,41.00
2023-03-29T23:18:19.406Z,47.33
2023-03-29T23:23:25.607Z,43.00
2023-03-29T23:28:35.556Z,37.33
2023-03-29T23:33:45.077Z,35.50
2023-03-29T23:38:50.379Z,43.00
2023-03-29T23:43:56.502Z,42.00
2023-03-29T23:49:01.691Z,41.67
2023-03-29T23:59:12.495Z,45.00
